Longdongbao Airport
ZUGY : now visible

Airfield :











YOU CAN JOIN US ON...

 
LOGIN :

Register | Disclaimer

   EN    FR    IT 

 









Legend :    VFR   Marginal VFR   IFR   Intensive IFR   Very Intensive IFR
Visi :
Ceiling :
>= 8 km
>= 3000ft
5 to 8 km
1000 to 3000 ft
1500m to 5 km
500 to 1000 ft
800 to 1500m
200 to 500 ft
< 800m
< 200 ft
Symbols :   Thunderstorms  Fog  Heavy snow  Heavy precipitations  Wind > 20 kt






- Airport Elevation : 3736 ft
- IATA code : KWE


ZUGY - Longdongbao

CURRENT METAR :
  • 210000Z 02002MPS 9999 SCT015 OVC026 05/04 Q1031 NOSIG

EXPIRED METARs :
  • 202300Z 02003MPS 7000 FEW006 BKN015 OVC026 05/04 Q1030 NOSIG
  • 202200Z 36002MPS 4000 -RA BR SCT004 BKN013 OVC023 05/04 Q1029 BECMG TL2330 SCT004 BKN015 OVC023

TAF TAF ZUGY
Valid from the 21 at 00:00 until the 22 at 00:00 UTC


201905Z 2100/2124 02004MPS 6000 BKN015 OVC033 TX08/2107Z TN05/2122Z



MET'MAP, your aeronautical weather chart ! - Copyright ORBIFLY December 2007 - Disclaimer

ORBIFLY MET'MAP TEAM :

Programming & Development : Alexandra Zaïnal
Concept & original design : Baudouin d'Aumeries
Assistance for programming : Marc-Olivier Méhu
Technical & hardware support : Manuel Goepfert

Contact : metmap@orbifly.com




SOURCES & CREDITS :

   NOAA       Earth
Advisory